sensor_id;sensor_type;location;lat;lon;timestamp;P1;durP1;ratioP1;P2;durP2;ratioP2
8254;SDS011;4167;48.162;11.542;2023-05-16T00:01:48;154.67;;;58.77;;
8254;SDS011;4167;48.162;11.542;2023-05-16T00:04:15;170.60;;;59.50;;
8254;SDS011;4167;48.162;11.542;2023-05-16T00:06:43;151.83;;;57.97;;
8254;SDS011;4167;48.162;11.542;2023-05-16T00:09:09;141.53;;;56.70;;
8254;SDS011;4167;48.162;11.542;2023-05-16T00:11:36;118.97;;;54.93;;
8254;SDS011;4167;48.162;11.542;2023-05-16T00:14:02;130.27;;;55.37;;
8254;SDS011;4167;48.162;11.542;2023-05-16T00:16:29;139.53;;;55.93;;
8254;SDS011;4167;48.162;11.542;2023-05-16T00:18:55;147.53;;;56.90;;
8254;SDS011;4167;48.162;11.542;2023-05-16T00:21:24;155.33;;;56.90;;
8254;SDS011;4167;48.162;11.542;2023-05-16T00:23:53;139.57;;;57.73;;
8254;SDS011;4167;48.162;11.542;2023-05-16T00:26:19;150.13;;;58.93;;
8254;SDS011;4167;48.162;11.542;2023-05-16T00:28:46;169.93;;;58.63;;
8254;SDS011;4167;48.162;11.542;2023-05-16T00:31:13;114.37;;;54.87;;
8254;SDS011;4167;48.162;11.542;2023-05-16T00:33:39;115.77;;;54.53;;
8254;SDS011;4167;48.162;11.542;2023-05-16T00:36:06;120.53;;;54.20;;
8254;SDS011;4167;48.162;11.542;2023-05-16T00:38:33;116.27;;;54.27;;
8254;SDS011;4167;48.162;11.542;2023-05-16T00:41:01;112.90;;;54.00;;
8254;SDS011;4167;48.162;11.542;2023-05-16T00:43:28;130.03;;;56.53;;
8254;SDS011;4167;48.162;11.542;2023-05-16T00:45:55;137.57;;;57.50;;
8254;SDS011;4167;48.162;11.542;2023-05-16T00:48:22;134.13;;;58.07;;
8254;SDS011;4167;48.162;11.542;2023-05-16T00:50:48;121.77;;;56.47;;
8254;SDS011;4167;48.162;11.542;2023-05-16T00:53:16;116.33;;;55.57;;
8254;SDS011;4167;48.162;11.542;2023-05-16T00:55:43;134.67;;;57.70;;
8254;SDS011;4167;48.162;11.542;2023-05-16T00:58:11;115.50;;;55.40;;
8254;SDS011;4167;48.162;11.542;2023-05-16T01:00:38;133.83;;;57.83;;
8254;SDS011;4167;48.162;11.542;2023-05-16T01:03:05;120.47;;;55.07;;
8254;SDS011;4167;48.162;11.542;2023-05-16T01:05:31;122.40;;;53.83;;
8254;SDS011;4167;48.162;11.542;2023-05-16T01:07:58;126.50;;;55.40;;
8254;SDS011;4167;48.162;11.542;2023-05-16T01:10:25;135.03;;;57.13;;
8254;SDS011;4167;48.162;11.542;2023-05-16T01:12:56;137.67;;;57.23;;
8254;SDS011;4167;48.162;11.542;2023-05-16T01:15:28;118.27;;;54.33;;
8254;SDS011;4167;48.162;11.542;2023-05-16T01:17:59;116.50;;;54.77;;
8254;SDS011;4167;48.162;11.542;2023-05-16T01:20:30;121.40;;;55.77;;
8254;SDS011;4167;48.162;11.542;2023-05-16T01:23:16;129.93;;;56.60;;
8254;SDS011;4167;48.162;11.542;2023-05-16T01:25:49;131.17;;;56.87;;
8254;SDS011;4167;48.162;11.542;2023-05-16T01:28:23;153.50;;;58.73;;
8254;SDS011;4167;48.162;11.542;2023-05-16T01:30:51;120.60;;;56.23;;
8254;SDS011;4167;48.162;11.542;2023-05-16T01:33:17;139.70;;;57.23;;
8254;SDS011;4167;48.162;11.542;2023-05-16T01:35:46;126.43;;;56.80;;
8254;SDS011;4167;48.162;11.542;2023-05-16T01:38:22;134.37;;;56.10;;
8254;SDS011;4167;48.162;11.542;2023-05-16T01:40:52;119.30;;;55.57;;
8254;SDS011;4167;48.162;11.542;2023-05-16T01:43:20;119.40;;;54.50;;
8254;SDS011;4167;48.162;11.542;2023-05-16T01:46:01;127.13;;;55.50;;
8254;SDS011;4167;48.162;11.542;2023-05-16T01:48:31;136.63;;;56.23;;
8254;SDS011;4167;48.162;11.542;2023-05-16T01:51:01;112.27;;;53.93;;
8254;SDS011;4167;48.162;11.542;2023-05-16T01:53:28;118.30;;;54.87;;
8254;SDS011;4167;48.162;11.542;2023-05-16T01:55:59;114.40;;;53.87;;
8254;SDS011;4167;48.162;11.542;2023-05-16T01:58:29;120.77;;;55.37;;
8254;SDS011;4167;48.162;11.542;2023-05-16T02:00:58;123.67;;;55.47;;
8254;SDS011;4167;48.162;11.542;2023-05-16T02:03:26;144.00;;;58.10;;
8254;SDS011;4167;48.162;11.542;2023-05-16T02:05:52;138.87;;;58.23;;
8254;SDS011;4167;48.162;11.542;2023-05-16T02:08:19;164.50;;;59.30;;
8254;SDS011;4167;48.162;11.542;2023-05-16T02:10:46;122.63;;;56.53;;
8254;SDS011;4167;48.162;11.542;2023-05-16T02:13:12;111.17;;;55.17;;
8254;SDS011;4167;48.162;11.542;2023-05-16T02:15:41;117.07;;;55.23;;
8254;SDS011;4167;48.162;11.542;2023-05-16T02:18:07;127.40;;;55.83;;
8254;SDS011;4167;48.162;11.542;2023-05-16T02:20:35;108.03;;;54.30;;
8254;SDS011;4167;48.162;11.542;2023-05-16T02:23:03;127.43;;;57.30;;
8254;SDS011;4167;48.162;11.542;2023-05-16T02:25:30;109.63;;;54.03;;
8254;SDS011;4167;48.162;11.542;2023-05-16T02:27:56;132.17;;;57.73;;
8254;SDS011;4167;48.162;11.542;2023-05-16T02:30:23;120.03;;;54.80;;
8254;SDS011;4167;48.162;11.542;2023-05-16T02:32:51;124.87;;;56.83;;
8254;SDS011;4167;48.162;11.542;2023-05-16T02:35:18;139.80;;;56.97;;
8254;SDS011;4167;48.162;11.542;2023-05-16T02:37:44;120.93;;;55.93;;
8254;SDS011;4167;48.162;11.542;2023-05-16T02:40:11;147.80;;;58.63;;
8254;SDS011;4167;48.162;11.542;2023-05-16T02:42:39;105.83;;;53.67;;
8254;SDS011;4167;48.162;11.542;2023-05-16T02:45:06;128.10;;;57.23;;
8254;SDS011;4167;48.162;11.542;2023-05-16T02:47:33;112.03;;;54.50;;
8254;SDS011;4167;48.162;11.542;2023-05-16T02:50:01;136.90;;;56.63;;
8254;SDS011;4167;48.162;11.542;2023-05-16T02:52:28;143.20;;;58.13;;
8254;SDS011;4167;48.162;11.542;2023-05-16T02:54:55;141.83;;;58.77;;
8254;SDS011;4167;48.162;11.542;2023-05-16T02:57:21;132.80;;;56.43;;
8254;SDS011;4167;48.162;11.542;2023-05-16T02:59:48;125.33;;;57.03;;
8254;SDS011;4167;48.162;11.542;2023-05-16T03:02:14;138.50;;;58.23;;
8254;SDS011;4167;48.162;11.542;2023-05-16T03:04:41;138.30;;;57.57;;
8254;SDS011;4167;48.162;11.542;2023-05-16T03:07:09;125.60;;;55.77;;
8254;SDS011;4167;48.162;11.542;2023-05-16T03:09:35;121.57;;;55.77;;
8254;SDS011;4167;48.162;11.542;2023-05-16T03:12:02;126.63;;;55.73;;
8254;SDS011;4167;48.162;11.542;2023-05-16T03:14:29;129.00;;;56.43;;
8254;SDS011;4167;48.162;11.542;2023-05-16T03:16:56;126.13;;;57.90;;
8254;SDS011;4167;48.162;11.542;2023-05-16T03:19:24;124.10;;;56.20;;
8254;SDS011;4167;48.162;11.542;2023-05-16T03:21:51;125.57;;;57.33;;
8254;SDS011;4167;48.162;11.542;2023-05-16T03:24:19;152.30;;;59.73;;
8254;SDS011;4167;48.162;11.542;2023-05-16T03:26:46;167.17;;;60.13;;
8254;SDS011;4167;48.162;11.542;2023-05-16T03:29:13;123.07;;;55.13;;
8254;SDS011;4167;48.162;11.542;2023-05-16T03:31:40;122.17;;;56.80;;
8254;SDS011;4167;48.162;11.542;2023-05-16T03:34:06;150.20;;;59.77;;
8254;SDS011;4167;48.162;11.542;2023-05-16T03:36:33;168.23;;;58.77;;
8254;SDS011;4167;48.162;11.542;2023-05-16T03:39:00;157.30;;;58.53;;
8254;SDS011;4167;48.162;11.542;2023-05-16T03:41:28;131.73;;;55.63;;
8254;SDS011;4167;48.162;11.542;2023-05-16T03:43:54;135.50;;;57.37;;
8254;SDS011;4167;48.162;11.542;2023-05-16T03:46:21;143.03;;;57.13;;
8254;SDS011;4167;48.162;11.542;2023-05-16T03:48:47;197.53;;;58.87;;
8254;SDS011;4167;48.162;11.542;2023-05-16T03:51:15;150.13;;;56.93;;
8254;SDS011;4167;48.162;11.542;2023-05-16T03:53:41;128.77;;;56.40;;
8254;SDS011;4167;48.162;11.542;2023-05-16T03:56:09;139.93;;;57.73;;
8254;SDS011;4167;48.162;11.542;2023-05-16T03:58:37;148.87;;;58.20;;
8254;SDS011;4167;48.162;11.542;2023-05-16T04:01:03;125.67;;;56.90;;
8254;SDS011;4167;48.162;11.542;2023-05-16T04:03:30;118.97;;;54.63;;
8254;SDS011;4167;48.162;11.542;2023-05-16T04:05:58;128.97;;;56.40;;
8254;SDS011;4167;48.162;11.542;2023-05-16T04:08:24;134.90;;;59.67;;
8254;SDS011;4167;48.162;11.542;2023-05-16T04:10:51;136.87;;;58.47;;
8254;SDS011;4167;48.162;11.542;2023-05-16T04:13:18;173.10;;;59.13;;
8254;SDS011;4167;48.162;11.542;2023-05-16T04:15:46;156.77;;;59.23;;
8254;SDS011;4167;48.162;11.542;2023-05-16T04:18:13;150.60;;;58.73;;
8254;SDS011;4167;48.162;11.542;2023-05-16T04:20:40;139.73;;;57.33;;
8254;SDS011;4167;48.162;11.542;2023-05-16T04:23:07;196.67;;;62.70;;
8254;SDS011;4167;48.162;11.542;2023-05-16T04:25:35;121.33;;;56.40;;
8254;SDS011;4167;48.162;11.542;2023-05-16T04:28:02;131.27;;;57.53;;
8254;SDS011;4167;48.162;11.542;2023-05-16T04:30:29;148.33;;;61.43;;
8254;SDS011;4167;48.162;11.542;2023-05-16T04:32:57;174.10;;;62.70;;
8254;SDS011;4167;48.162;11.542;2023-05-16T04:35:24;129.03;;;56.30;;
8254;SDS011;4167;48.162;11.542;2023-05-16T04:37:52;187.73;;;61.37;;
8254;SDS011;4167;48.162;11.542;2023-05-16T04:40:18;178.50;;;62.87;;
8254;SDS011;4167;48.162;11.542;2023-05-16T04:42:45;145.30;;;57.63;;
8254;SDS011;4167;48.162;11.542;2023-05-16T04:45:11;153.30;;;60.47;;
8254;SDS011;4167;48.162;11.542;2023-05-16T04:47:38;153.00;;;59.27;;
8254;SDS011;4167;48.162;11.542;2023-05-16T04:50:08;161.20;;;59.57;;
8254;SDS011;4167;48.162;11.542;2023-05-16T04:52:35;155.33;;;58.70;;
8254;SDS011;4167;48.162;11.542;2023-05-16T04:55:02;186.83;;;60.13;;
8254;SDS011;4167;48.162;11.542;2023-05-16T04:57:29;163.43;;;60.07;;
8254;SDS011;4167;48.162;11.542;2023-05-16T04:59:56;146.37;;;59.33;;
8254;SDS011;4167;48.162;11.542;2023-05-16T05:02:22;192.13;;;61.67;;
8254;SDS011;4167;48.162;11.542;2023-05-16T05:04:49;138.37;;;58.30;;
8254;SDS011;4167;48.162;11.542;2023-05-16T05:07:17;140.43;;;59.33;;
8254;SDS011;4167;48.162;11.542;2023-05-16T05:09:43;181.87;;;60.40;;
8254;SDS011;4167;48.162;11.542;2023-05-16T05:12:10;162.60;;;59.23;;
8254;SDS011;4167;48.162;11.542;2023-05-16T05:14:37;150.23;;;59.23;;
8254;SDS011;4167;48.162;11.542;2023-05-16T05:17:05;148.63;;;59.53;;
8254;SDS011;4167;48.162;11.542;2023-05-16T05:19:31;142.23;;;58.10;;
8254;SDS011;4167;48.162;11.542;2023-05-16T05:21:58;163.53;;;61.23;;
8254;SDS011;4167;48.162;11.542;2023-05-16T05:24:26;141.37;;;59.03;;
8254;SDS011;4167;48.162;11.542;2023-05-16T05:26:53;175.90;;;60.83;;
8254;SDS011;4167;48.162;11.542;2023-05-16T05:29:19;172.97;;;61.37;;
8254;SDS011;4167;48.162;11.542;2023-05-16T05:31:48;210.60;;;63.77;;
8254;SDS011;4167;48.162;11.542;2023-05-16T05:34:16;232.90;;;65.33;;
8254;SDS011;4167;48.162;11.542;2023-05-16T05:36:42;275.90;;;66.83;;
8254;SDS011;4167;48.162;11.542;2023-05-16T05:39:09;236.67;;;65.30;;
8254;SDS011;4167;48.162;11.542;2023-05-16T05:41:38;260.07;;;64.93;;
8254;SDS011;4167;48.162;11.542;2023-05-16T05:44:05;224.37;;;64.60;;
8254;SDS011;4167;48.162;11.542;2023-05-16T05:46:31;226.10;;;64.27;;
8254;SDS011;4167;48.162;11.542;2023-05-16T05:48:59;194.37;;;63.37;;
8254;SDS011;4167;48.162;11.542;2023-05-16T05:51:26;215.57;;;62.73;;
8254;SDS011;4167;48.162;11.542;2023-05-16T05:53:53;252.63;;;66.23;;
8254;SDS011;4167;48.162;11.542;2023-05-16T05:56:20;185.93;;;61.67;;
8254;SDS011;4167;48.162;11.542;2023-05-16T05:58:52;248.97;;;65.73;;
8254;SDS011;4167;48.162;11.542;2023-05-16T06:01:18;222.50;;;64.00;;
8254;SDS011;4167;48.162;11.542;2023-05-16T06:03:46;181.00;;;60.97;;
8254;SDS011;4167;48.162;11.542;2023-05-16T06:06:12;192.77;;;62.03;;
8254;SDS011;4167;48.162;11.542;2023-05-16T06:08:40;281.93;;;67.30;;
8254;SDS011;4167;48.162;11.542;2023-05-16T06:11:06;275.97;;;67.83;;
8254;SDS011;4167;48.162;11.542;2023-05-16T06:13:33;270.57;;;68.10;;
8254;SDS011;4167;48.162;11.542;2023-05-16T06:16:01;282.50;;;70.37;;
8254;SDS011;4167;48.162;11.542;2023-05-16T06:18:29;220.90;;;65.07;;
8254;SDS011;4167;48.162;11.542;2023-05-16T06:20:56;211.90;;;64.90;;
8254;SDS011;4167;48.162;11.542;2023-05-16T06:23:23;176.93;;;62.77;;
8254;SDS011;4167;48.162;11.542;2023-05-16T06:25:51;265.13;;;67.17;;
8254;SDS011;4167;48.162;11.542;2023-05-16T06:28:18;212.07;;;65.00;;
8254;SDS011;4167;48.162;11.542;2023-05-16T06:30:44;245.40;;;66.53;;
8254;SDS011;4167;48.162;11.542;2023-05-16T06:33:13;216.83;;;63.80;;
8254;SDS011;4167;48.162;11.542;2023-05-16T06:35:40;276.77;;;69.50;;
8254;SDS011;4167;48.162;11.542;2023-05-16T06:38:08;239.40;;;65.33;;
8254;SDS011;4167;48.162;11.542;2023-05-16T06:40:35;206.87;;;63.73;;
8254;SDS011;4167;48.162;11.542;2023-05-16T06:43:01;248.03;;;68.77;;
8254;SDS011;4167;48.162;11.542;2023-05-16T06:45:28;243.83;;;66.83;;
8254;SDS011;4167;48.162;11.542;2023-05-16T06:47:55;319.07;;;72.73;;
8254;SDS011;4167;48.162;11.542;2023-05-16T06:50:24;242.90;;;66.87;;
8254;SDS011;4167;48.162;11.542;2023-05-16T06:52:51;226.47;;;67.53;;
8254;SDS011;4167;48.162;11.542;2023-05-16T06:55:17;231.43;;;68.23;;
8254;SDS011;4167;48.162;11.542;2023-05-16T06:57:44;235.17;;;66.27;;
8254;SDS011;4167;48.162;11.542;2023-05-16T07:00:12;286.80;;;72.03;;
8254;SDS011;4167;48.162;11.542;2023-05-16T07:02:39;206.23;;;64.83;;
8254;SDS011;4167;48.162;11.542;2023-05-16T07:05:07;273.10;;;71.00;;
8254;SDS011;4167;48.162;11.542;2023-05-16T07:07:35;232.07;;;72.33;;
8254;SDS011;4167;48.162;11.542;2023-05-16T07:10:02;243.87;;;67.23;;
8254;SDS011;4167;48.162;11.542;2023-05-16T07:12:29;280.30;;;69.27;;
8254;SDS011;4167;48.162;11.542;2023-05-16T07:14:55;219.20;;;66.90;;
8254;SDS011;4167;48.162;11.542;2023-05-16T07:17:22;232.37;;;67.17;;
8254;SDS011;4167;48.162;11.542;2023-05-16T07:19:49;250.30;;;67.90;;
8254;SDS011;4167;48.162;11.542;2023-05-16T07:22:15;193.00;;;63.23;;
8254;SDS011;4167;48.162;11.542;2023-05-16T07:24:43;203.03;;;64.33;;
8254;SDS011;4167;48.162;11.542;2023-05-16T07:27:10;289.10;;;68.47;;
8254;SDS011;4167;48.162;11.542;2023-05-16T07:29:37;179.43;;;63.40;;
8254;SDS011;4167;48.162;11.542;2023-05-16T07:32:04;193.93;;;66.80;;
8254;SDS011;4167;48.162;11.542;2023-05-16T07:34:31;186.73;;;64.97;;
8254;SDS011;4167;48.162;11.542;2023-05-16T07:36:58;236.73;;;68.40;;
8254;SDS011;4167;48.162;11.542;2023-05-16T07:39:24;196.50;;;65.23;;
8254;SDS011;4167;48.162;11.542;2023-05-16T07:41:53;197.63;;;65.70;;
8254;SDS011;4167;48.162;11.542;2023-05-16T07:44:19;195.73;;;63.47;;
8254;SDS011;4167;48.162;11.542;2023-05-16T07:46:46;262.83;;;66.63;;
8254;SDS011;4167;48.162;11.542;2023-05-16T07:49:16;206.47;;;66.70;;
8254;SDS011;4167;48.162;11.542;2023-05-16T07:51:43;225.63;;;66.90;;
8254;SDS011;4167;48.162;11.542;2023-05-16T07:54:09;184.97;;;63.03;;
8254;SDS011;4167;48.162;11.542;2023-05-16T07:56:36;195.20;;;63.93;;
8254;SDS011;4167;48.162;11.542;2023-05-16T07:59:04;316.70;;;72.50;;
8254;SDS011;4167;48.162;11.542;2023-05-16T08:01:31;265.03;;;67.37;;
8254;SDS011;4167;48.162;11.542;2023-05-16T08:03:57;209.80;;;67.17;;
8254;SDS011;4167;48.162;11.542;2023-05-16T08:06:24;276.70;;;70.63;;
8254;SDS011;4167;48.162;11.542;2023-05-16T08:08:51;201.03;;;64.03;;
8254;SDS011;4167;48.162;11.542;2023-05-16T08:11:18;230.73;;;67.67;;
8254;SDS011;4167;48.162;11.542;2023-05-16T08:13:46;284.80;;;69.90;;
8254;SDS011;4167;48.162;11.542;2023-05-16T08:16:14;254.67;;;70.87;;
8254;SDS011;4167;48.162;11.542;2023-05-16T08:18:41;242.03;;;69.00;;
8254;SDS011;4167;48.162;11.542;2023-05-16T08:21:07;217.90;;;67.60;;
8254;SDS011;4167;48.162;11.542;2023-05-16T08:23:34;234.27;;;68.20;;
8254;SDS011;4167;48.162;11.542;2023-05-16T08:26:01;208.93;;;66.13;;
8254;SDS011;4167;48.162;11.542;2023-05-16T08:28:28;185.73;;;66.80;;
8254;SDS011;4167;48.162;11.542;2023-05-16T08:30:54;204.33;;;64.37;;
8254;SDS011;4167;48.162;11.542;2023-05-16T08:33:23;165.17;;;63.43;;
8254;SDS011;4167;48.162;11.542;2023-05-16T08:35:50;169.33;;;64.50;;
8254;SDS011;4167;48.162;11.542;2023-05-16T08:38:17;214.30;;;67.37;;
8254;SDS011;4167;48.162;11.542;2023-05-16T08:40:44;235.33;;;68.70;;
8254;SDS011;4167;48.162;11.542;2023-05-16T08:43:11;246.67;;;68.60;;
8254;SDS011;4167;48.162;11.542;2023-05-16T08:45:39;246.50;;;69.00;;
8254;SDS011;4167;48.162;11.542;2023-05-16T08:48:06;250.77;;;68.77;;
8254;SDS011;4167;48.162;11.542;2023-05-16T08:50:34;238.73;;;67.50;;
8254;SDS011;4167;48.162;11.542;2023-05-16T08:53:03;256.07;;;68.83;;
8254;SDS011;4167;48.162;11.542;2023-05-16T08:55:32;222.63;;;67.77;;
8254;SDS011;4167;48.162;11.542;2023-05-16T08:57:59;162.17;;;64.37;;
8254;SDS011;4167;48.162;11.542;2023-05-16T09:00:26;190.43;;;66.63;;
8254;SDS011;4167;48.162;11.542;2023-05-16T09:02:52;232.23;;;71.30;;
8254;SDS011;4167;48.162;11.542;2023-05-16T09:05:20;206.70;;;69.53;;
8254;SDS011;4167;48.162;11.542;2023-05-16T09:07:49;284.50;;;74.30;;
8254;SDS011;4167;48.162;11.542;2023-05-16T09:10:16;228.07;;;68.27;;
8254;SDS011;4167;48.162;11.542;2023-05-16T09:12:43;209.27;;;68.27;;
8254;SDS011;4167;48.162;11.542;2023-05-16T09:15:10;238.60;;;71.40;;
8254;SDS011;4167;48.162;11.542;2023-05-16T09:17:38;163.90;;;67.03;;
8254;SDS011;4167;48.162;11.542;2023-05-16T09:20:09;269.53;;;75.13;;
8254;SDS011;4167;48.162;11.542;2023-05-16T09:22:38;361.13;;;74.13;;
8254;SDS011;4167;48.162;11.542;2023-05-16T09:25:06;337.43;;;73.87;;
8254;SDS011;4167;48.162;11.542;2023-05-16T09:27:33;336.40;;;73.90;;
8254;SDS011;4167;48.162;11.542;2023-05-16T09:30:00;440.20;;;80.20;;
8254;SDS011;4167;48.162;11.542;2023-05-16T09:32:26;304.00;;;71.57;;
8254;SDS011;4167;48.162;11.542;2023-05-16T09:34:53;354.00;;;74.47;;
8254;SDS011;4167;48.162;11.542;2023-05-16T09:37:22;421.50;;;78.00;;
8254;SDS011;4167;48.162;11.542;2023-05-16T09:39:49;339.90;;;75.33;;
8254;SDS011;4167;48.162;11.542;2023-05-16T09:42:18;345.37;;;75.50;;
8254;SDS011;4167;48.162;11.542;2023-05-16T09:44:45;444.77;;;79.50;;
8254;SDS011;4167;48.162;11.542;2023-05-16T09:47:13;421.30;;;78.30;;
8254;SDS011;4167;48.162;11.542;2023-05-16T09:49:40;352.50;;;74.23;;
8254;SDS011;4167;48.162;11.542;2023-05-16T09:52:06;469.83;;;82.60;;
8254;SDS011;4167;48.162;11.542;2023-05-16T09:54:33;401.57;;;77.70;;
8254;SDS011;4167;48.162;11.542;2023-05-16T09:57:00;479.33;;;81.20;;
8254;SDS011;4167;48.162;11.542;2023-05-16T09:59:28;456.93;;;80.67;;
8254;SDS011;4167;48.162;11.542;2023-05-16T10:01:56;379.43;;;74.73;;
8254;SDS011;4167;48.162;11.542;2023-05-16T10:04:23;307.77;;;70.37;;
8254;SDS011;4167;48.162;11.542;2023-05-16T10:06:49;418.00;;;77.07;;
8254;SDS011;4167;48.162;11.542;2023-05-16T10:09:16;315.73;;;71.57;;
8254;SDS011;4167;48.162;11.542;2023-05-16T10:11:43;446.47;;;80.03;;
8254;SDS011;4167;48.162;11.542;2023-05-16T10:14:10;538.10;;;83.37;;
8254;SDS011;4167;48.162;11.542;2023-05-16T10:16:38;474.83;;;80.10;;
8254;SDS011;4167;48.162;11.542;2023-05-16T10:19:08;384.10;;;75.17;;
8254;SDS011;4167;48.162;11.542;2023-05-16T10:21:34;291.03;;;69.37;;
8254;SDS011;4167;48.162;11.542;2023-05-16T10:24:03;323.43;;;74.00;;
8254;SDS011;4167;48.162;11.542;2023-05-16T10:26:32;420.30;;;77.93;;
8254;SDS011;4167;48.162;11.542;2023-05-16T10:28:59;419.50;;;77.13;;
8254;SDS011;4167;48.162;11.542;2023-05-16T10:31:25;304.47;;;69.83;;
8254;SDS011;4167;48.162;11.542;2023-05-16T10:33:55;319.33;;;71.20;;
8254;SDS011;4167;48.162;11.542;2023-05-16T10:36:22;321.53;;;70.93;;
8254;SDS011;4167;48.162;11.542;2023-05-16T10:38:49;421.33;;;79.03;;
8254;SDS011;4167;48.162;11.542;2023-05-16T10:41:16;358.77;;;74.63;;
8254;SDS011;4167;48.162;11.542;2023-05-16T10:43:43;436.30;;;78.80;;
8254;SDS011;4167;48.162;11.542;2023-05-16T10:46:11;400.77;;;76.60;;
8254;SDS011;4167;48.162;11.542;2023-05-16T10:48:38;345.73;;;74.10;;
8254;SDS011;4167;48.162;11.542;2023-05-16T10:54:03;400.83;;;77.07;;
8254;SDS011;4167;48.162;11.542;2023-05-16T10:56:31;330.23;;;73.63;;
8254;SDS011;4167;48.162;11.542;2023-05-16T10:58:58;401.63;;;78.50;;
8254;SDS011;4167;48.162;11.542;2023-05-16T11:01:26;299.27;;;71.37;;
8254;SDS011;4167;48.162;11.542;2023-05-16T11:04:00;382.67;;;77.10;;
8254;SDS011;4167;48.162;11.542;2023-05-16T11:06:28;514.90;;;86.17;;
8254;SDS011;4167;48.162;11.542;2023-05-16T11:08:58;332.23;;;74.77;;
8254;SDS011;4167;48.162;11.542;2023-05-16T11:11:40;289.43;;;71.67;;
8254;SDS011;4167;48.162;11.542;2023-05-16T11:14:08;429.10;;;83.40;;
8254;SDS011;4167;48.162;11.542;2023-05-16T11:16:35;285.27;;;72.63;;
8254;SDS011;4167;48.162;11.542;2023-05-16T11:19:04;299.90;;;76.87;;
8254;SDS011;4167;48.162;11.542;2023-05-16T11:27:04;399.70;;;79.77;;
8254;SDS011;4167;48.162;11.542;2023-05-16T11:29:32;327.63;;;74.57;;
8254;SDS011;4167;48.162;11.542;2023-05-16T11:31:59;269.30;;;69.20;;
8254;SDS011;4167;48.162;11.542;2023-05-16T11:34:26;258.23;;;71.93;;
8254;SDS011;4167;48.162;11.542;2023-05-16T11:36:54;248.20;;;71.77;;
8254;SDS011;4167;48.162;11.542;2023-05-16T11:39:21;312.87;;;78.93;;
8254;SDS011;4167;48.162;11.542;2023-05-16T11:41:48;349.90;;;80.17;;
8254;SDS011;4167;48.162;11.542;2023-05-16T11:44:16;333.93;;;75.97;;
8254;SDS011;4167;48.162;11.542;2023-05-16T11:46:43;367.00;;;78.63;;
8254;SDS011;4167;48.162;11.542;2023-05-16T11:49:10;529.67;;;91.00;;
8254;SDS011;4167;48.162;11.542;2023-05-16T11:51:37;324.73;;;77.07;;
8254;SDS011;4167;48.162;11.542;2023-05-16T11:54:04;588.70;;;94.47;;
8254;SDS011;4167;48.162;11.542;2023-05-16T11:56:31;355.70;;;80.90;;
8254;SDS011;4167;48.162;11.542;2023-05-16T11:58:59;341.00;;;78.73;;
8254;SDS011;4167;48.162;11.542;2023-05-16T12:01:32;333.93;;;77.40;;
8254;SDS011;4167;48.162;11.542;2023-05-16T12:03:59;364.83;;;78.87;;
8254;SDS011;4167;48.162;11.542;2023-05-16T12:06:25;213.47;;;70.10;;
8254;SDS011;4167;48.162;11.542;2023-05-16T12:08:53;296.10;;;74.63;;
8254;SDS011;4167;48.162;11.542;2023-05-16T12:11:21;241.63;;;70.70;;
8254;SDS011;4167;48.162;11.542;2023-05-16T12:13:48;301.33;;;73.93;;
8254;SDS011;4167;48.162;11.542;2023-05-16T12:16:15;268.73;;;72.53;;
8254;SDS011;4167;48.162;11.542;2023-05-16T12:18:43;365.47;;;78.37;;
8254;SDS011;4167;48.162;11.542;2023-05-16T12:21:09;269.17;;;73.47;;
8254;SDS011;4167;48.162;11.542;2023-05-16T12:23:36;328.53;;;76.47;;
8254;SDS011;4167;48.162;11.542;2023-05-16T12:26:02;272.00;;;74.13;;
8254;SDS011;4167;48.162;11.542;2023-05-16T12:28:32;280.13;;;74.43;;
8254;SDS011;4167;48.162;11.542;2023-05-16T12:30:59;288.00;;;74.23;;
8254;SDS011;4167;48.162;11.542;2023-05-16T12:33:26;299.30;;;73.87;;
8254;SDS011;4167;48.162;11.542;2023-05-16T12:35:54;421.30;;;81.27;;
8254;SDS011;4167;48.162;11.542;2023-05-16T12:38:20;364.47;;;77.83;;
8254;SDS011;4167;48.162;11.542;2023-05-16T12:40:50;301.47;;;74.50;;
8254;SDS011;4167;48.162;11.542;2023-05-16T12:43:22;298.73;;;74.57;;
8254;SDS011;4167;48.162;11.542;2023-05-16T12:45:49;332.47;;;76.07;;
8254;SDS011;4167;48.162;11.542;2023-05-16T12:48:17;382.83;;;78.93;;
8254;SDS011;4167;48.162;11.542;2023-05-16T12:50:43;307.67;;;75.93;;
8254;SDS011;4167;48.162;11.542;2023-05-16T12:53:12;375.13;;;79.93;;
8254;SDS011;4167;48.162;11.542;2023-05-16T12:55:39;346.07;;;78.70;;
8254;SDS011;4167;48.162;11.542;2023-05-16T12:58:06;464.97;;;84.77;;
8254;SDS011;4167;48.162;11.542;2023-05-16T13:00:33;454.53;;;84.77;;
8254;SDS011;4167;48.162;11.542;2023-05-16T13:03:00;425.77;;;83.27;;
8254;SDS011;4167;48.162;11.542;2023-05-16T13:05:27;295.67;;;76.77;;
8254;SDS011;4167;48.162;11.542;2023-05-16T13:07:53;305.23;;;76.73;;
8254;SDS011;4167;48.162;11.542;2023-05-16T13:10:21;300.97;;;75.97;;
8254;SDS011;4167;48.162;11.542;2023-05-16T13:12:49;280.50;;;73.13;;
8254;SDS011;4167;48.162;11.542;2023-05-16T13:15:16;374.67;;;79.50;;
8254;SDS011;4167;48.162;11.542;2023-05-16T13:17:43;269.33;;;73.77;;
8254;SDS011;4167;48.162;11.542;2023-05-16T13:20:09;351.53;;;78.87;;
8254;SDS011;4167;48.162;11.542;2023-05-16T13:22:38;369.50;;;79.13;;
8254;SDS011;4167;48.162;11.542;2023-05-16T13:25:05;323.03;;;72.90;;
8254;SDS011;4167;48.162;11.542;2023-05-16T13:27:34;379.43;;;74.20;;
8254;SDS011;4167;48.162;11.542;2023-05-16T13:30:00;337.43;;;70.73;;
8254;SDS011;4167;48.162;11.542;2023-05-16T13:32:28;298.80;;;69.80;;
8254;SDS011;4167;48.162;11.542;2023-05-16T13:34:54;341.17;;;69.47;;
8254;SDS011;4167;48.162;11.542;2023-05-16T13:37:21;319.20;;;68.13;;
8254;SDS011;4167;48.162;11.542;2023-05-16T13:39:48;285.00;;;66.47;;
8254;SDS011;4167;48.162;11.542;2023-05-16T13:42:14;292.33;;;66.50;;
8254;SDS011;4167;48.162;11.542;2023-05-16T13:44:42;230.93;;;63.50;;
8254;SDS011;4167;48.162;11.542;2023-05-16T13:47:09;206.50;;;60.60;;
8254;SDS011;4167;48.162;11.542;2023-05-16T13:49:35;205.33;;;62.10;;
8254;SDS011;4167;48.162;11.542;2023-05-16T13:52:03;232.73;;;62.50;;
8254;SDS011;4167;48.162;11.542;2023-05-16T13:54:30;251.50;;;62.37;;
8254;SDS011;4167;48.162;11.542;2023-05-16T13:56:56;291.57;;;65.43;;
8254;SDS011;4167;48.162;11.542;2023-05-16T13:59:23;241.53;;;61.73;;
8254;SDS011;4167;48.162;11.542;2023-05-16T14:01:51;239.40;;;60.80;;
8254;SDS011;4167;48.162;11.542;2023-05-16T14:04:17;294.90;;;63.13;;
8254;SDS011;4167;48.162;11.542;2023-05-16T14:06:44;304.57;;;63.27;;
8254;SDS011;4167;48.162;11.542;2023-05-16T14:09:10;241.63;;;61.17;;
8254;SDS011;4167;48.162;11.542;2023-05-16T14:11:39;239.50;;;58.43;;
8254;SDS011;4167;48.162;11.542;2023-05-16T14:14:05;311.57;;;66.73;;
8254;SDS011;4167;48.162;11.542;2023-05-16T14:16:32;262.23;;;62.47;;
8254;SDS011;4167;48.162;11.542;2023-05-16T14:18:59;194.37;;;58.10;;
8254;SDS011;4167;48.162;11.542;2023-05-16T14:21:26;241.20;;;60.20;;
8254;SDS011;4167;48.162;11.542;2023-05-16T14:23:52;215.83;;;61.57;;
8254;SDS011;4167;48.162;11.542;2023-05-16T14:26:19;322.70;;;67.37;;
8254;SDS011;4167;48.162;11.542;2023-05-16T14:28:49;214.50;;;60.97;;
8254;SDS011;4167;48.162;11.542;2023-05-16T14:31:15;209.00;;;61.00;;